createdAt,value
2017-04-02T00:00:55.759Z,0
2017-04-02T00:02:04.974Z,0
2017-04-02T00:03:14.186Z,0
2017-04-02T00:04:23.110Z,0
2017-04-02T00:05:32.000Z,0
2017-04-02T00:06:41.374Z,0
2017-04-02T00:07:50.597Z,0
2017-04-02T00:08:59.485Z,0
2017-04-02T00:10:08.376Z,0
2017-04-02T00:11:17.263Z,0
2017-04-02T00:12:26.305Z,0
2017-04-02T00:13:35.233Z,0
2017-04-02T00:14:44.120Z,0
2017-04-02T00:15:53.339Z,0
2017-04-02T00:17:02.554Z,0
2017-04-02T00:18:11.492Z,0
2017-04-02T00:19:20.442Z,0
2017-04-02T00:20:29.655Z,0
2017-04-02T00:21:38.546Z,0
2017-04-02T00:22:47.769Z,0
2017-04-02T00:23:56.910Z,0
2017-04-02T00:25:06.450Z,0
2017-04-02T00:26:15.339Z,0
2017-04-02T00:27:24.238Z,0
2017-04-02T00:28:33.454Z,0
2017-04-02T00:29:42.341Z,0
2017-04-02T00:30:51.237Z,0
2017-04-02T00:32:00.125Z,0
2017-04-02T00:33:09.346Z,0
2017-04-02T00:34:18.235Z,0
2017-04-02T00:35:27.124Z,0
2017-04-02T00:36:36.009Z,0
2017-04-02T00:37:44.905Z,0
2017-04-02T00:38:53.792Z,0
2017-04-02T00:40:03.001Z,0
2017-04-02T00:41:12.139Z,0
2017-04-02T00:42:21.028Z,0
2017-04-02T00:43:29.924Z,0
2017-04-02T00:44:38.811Z,0
2017-04-02T00:45:47.696Z,0
2017-04-02T00:46:56.638Z,0
2017-04-02T00:48:05.851Z,0
2017-04-02T00:49:14.741Z,0
2017-04-02T00:50:23.629Z,0
2017-04-02T00:51:32.515Z,0
2017-04-02T00:52:41.602Z,0
2017-04-02T00:53:50.820Z,0
2017-04-02T00:54:59.751Z,0
2017-04-02T00:56:08.639Z,0
2017-04-02T00:57:17.531Z,0
2017-04-02T00:58:26.468Z,0
2017-04-02T00:59:35.358Z,0
2017-04-02T01:00:44.894Z,0
2017-04-02T01:01:54.116Z,0
2017-04-02T01:03:03.005Z,0
2017-04-02T01:04:11.946Z,0
2017-04-02T01:05:20.834Z,0
2017-04-02T01:06:29.724Z,0
2017-04-02T01:07:38.613Z,0
2017-04-02T01:08:47.505Z,0
2017-04-02T01:09:56.641Z,0
2017-04-02T01:11:05.534Z,0
2017-04-02T01:12:14.429Z,0
2017-04-02T01:13:23.648Z,0
2017-04-02T01:14:32.861Z,0
2017-04-02T01:15:42.131Z,0
2017-04-02T01:16:51.020Z,0
2017-04-02T01:17:59.914Z,0
2017-04-02T01:19:08.806Z,0
2017-04-02T01:20:18.026Z,0
2017-04-02T01:21:27.072Z,0
2017-04-02T01:22:35.959Z,0
2017-04-02T01:23:44.846Z,0
2017-04-02T01:24:53.736Z,0
2017-04-02T01:26:02.624Z,0
2017-04-02T01:27:11.993Z,0
2017-04-02T01:28:20.882Z,0
2017-04-02T01:29:29.770Z,0
2017-04-02T01:30:39.307Z,0
2017-04-02T01:31:48.197Z,0
2017-04-02T01:32:57.238Z,0
2017-04-02T01:34:06.130Z,0
2017-04-02T01:35:15.017Z,0
2017-04-02T01:36:23.908Z,0
2017-04-02T01:37:32.799Z,0
2017-04-02T01:38:41.731Z,0
2017-04-02T01:39:50.622Z,0
2017-04-02T01:40:59.510Z,0
2017-04-02T01:42:08.404Z,0
2017-04-02T01:43:17.292Z,0
2017-04-02T01:44:26.573Z,0
2017-04-02T01:45:35.784Z,0
2017-04-02T01:46:44.679Z,0
2017-04-02T01:47:53.890Z,0
2017-04-02T01:49:02.777Z,0
2017-04-02T01:50:12.043Z,0
2017-04-02T01:51:21.267Z,0
2017-04-02T01:52:30.161Z,0
2017-04-02T01:53:39.048Z,0
2017-04-02T01:54:47.948Z,0
2017-04-02T01:55:57.179Z,0
2017-04-02T01:57:06.069Z,0
2017-04-02T01:58:15.280Z,0
2017-04-02T01:59:24.217Z,0
2017-04-02T02:00:33.435Z,0
2017-04-02T02:01:42.625Z,0
2017-04-02T02:02:52.496Z,0
2017-04-02T02:04:01.386Z,0
2017-04-02T02:05:10.275Z,0
2017-04-02T02:06:19.498Z,0
2017-04-02T02:07:28.977Z,0
2017-04-02T02:08:37.863Z,0
2017-04-02T02:09:47.077Z,0
2017-04-02T02:10:55.965Z,0
2017-04-02T02:12:05.191Z,0
2017-04-02T02:13:14.136Z,0
2017-04-02T02:14:23.127Z,0
2017-04-02T02:15:32.022Z,0
2017-04-02T02:16:41.238Z,0
2017-04-02T02:17:50.453Z,0
2017-04-02T02:18:59.641Z,0
2017-04-02T02:20:08.536Z,0
2017-04-02T02:21:17.427Z,0
2017-04-02T02:22:26.315Z,0
2017-04-02T02:23:35.202Z,0
2017-04-02T02:24:44.505Z,0
2017-04-02T02:25:53.398Z,0
2017-04-02T02:27:02.292Z,0
2017-04-02T02:28:11.178Z,0
2017-04-02T02:29:20.067Z,0
2017-04-02T02:30:29.331Z,0
2017-04-02T02:31:38.546Z,0
2017-04-02T02:32:47.438Z,0
2017-04-02T02:33:56.337Z,0
2017-04-02T02:35:05.547Z,0
2017-04-02T02:36:14.440Z,0
2017-04-02T02:37:23.656Z,0
2017-04-02T02:38:32.545Z,0
2017-04-02T02:39:41.755Z,0
2017-04-02T02:40:50.645Z,0
2017-04-02T02:41:59.538Z,0
2017-04-02T02:43:08.441Z,0
2017-04-02T02:44:17.325Z,0
2017-04-02T02:45:26.224Z,0
2017-04-02T02:46:35.433Z,0
2017-04-02T02:47:44.797Z,0
2017-04-02T02:48:53.689Z,0
2017-04-02T02:50:02.907Z,0
2017-04-02T02:51:11.797Z,0
2017-04-02T02:52:21.012Z,0
2017-04-02T02:53:30.198Z,0
2017-04-02T02:54:39.089Z,0
2017-04-02T02:55:47.979Z,0
2017-04-02T02:56:56.872Z,0
2017-04-02T02:58:06.413Z,0
2017-04-02T02:59:15.553Z,0
2017-04-02T03:00:24.440Z,0
2017-04-02T03:01:33.329Z,0
2017-04-02T03:02:42.222Z,0
2017-04-02T03:03:51.111Z,0
2017-04-02T03:05:00.305Z,0
2017-04-02T03:06:09.236Z,0
2017-04-02T03:07:18.122Z,0
2017-04-02T03:08:27.011Z,0
2017-04-02T03:09:35.902Z,0
2017-04-02T03:10:44.944Z,0
2017-04-02T03:11:53.834Z,0
2017-04-02T03:13:02.724Z,0
2017-04-02T03:14:11.614Z,0
2017-04-02T03:15:20.828Z,0
2017-04-02T03:16:29.817Z,0
2017-04-02T03:17:38.714Z,0
2017-04-02T03:18:47.925Z,0
2017-04-02T03:19:56.818Z,0
2017-04-02T03:21:05.704Z,0
2017-04-02T03:22:15.076Z,0
2017-04-02T03:23:24.286Z,0
2017-04-02T03:24:33.501Z,0
2017-04-02T03:25:42.394Z,0
2017-04-02T03:26:51.287Z,0
2017-04-02T03:28:00.231Z,0
2017-04-02T03:29:09.119Z,0
2017-04-02T03:30:18.334Z,0
2017-04-02T03:31:27.226Z,0
2017-04-02T03:32:36.112Z,0
2017-04-02T03:33:45.003Z,0
2017-04-02T03:34:53.900Z,0
2017-04-02T03:36:02.788Z,0
2017-04-02T03:37:11.682Z,0
2017-04-02T03:38:20.573Z,0
2017-04-02T03:39:29.460Z,0
2017-04-02T03:40:38.675Z,0
2017-04-02T03:41:47.565Z,0
2017-04-02T03:42:56.457Z,0
2017-04-02T03:44:05.347Z,0
2017-04-02T03:45:14.713Z,0
2017-04-02T03:46:23.606Z,0
2017-04-02T03:47:32.493Z,0
2017-04-02T03:48:41.381Z,0
2017-04-02T03:49:50.274Z,0
2017-04-02T03:50:59.639Z,0
2017-04-02T03:52:08.534Z,0
2017-04-02T03:53:17.419Z,0
2017-04-02T03:54:26.309Z,0
2017-04-02T03:55:35.195Z,0
2017-04-02T03:56:44.404Z,0
2017-04-02T03:57:53.288Z,0
2017-04-02T03:59:02.179Z,0
2017-04-02T04:00:11.066Z,0
2017-04-02T04:01:19.957Z,0
2017-04-02T04:02:28.944Z,0
2017-04-02T04:03:37.838Z,0
2017-04-02T04:04:46.729Z,0
2017-04-02T04:05:55.614Z,0
2017-04-02T04:07:04.504Z,0
2017-04-02T04:08:13.735Z,0
2017-04-02T04:09:22.949Z,0
2017-04-02T04:10:31.847Z,0
2017-04-02T04:11:41.059Z,0
2017-04-02T04:12:49.949Z,0
2017-04-02T04:13:58.985Z,0
2017-04-02T04:15:08.198Z,0
2017-04-02T04:16:17.092Z,0
2017-04-02T04:17:26.310Z,0
2017-04-02T04:18:35.195Z,0
2017-04-02T04:19:44.135Z,0
2017-04-02T04:20:53.024Z,0
2017-04-02T04:22:01.920Z,0
2017-04-02T04:23:10.850Z,0
2017-04-02T04:24:19.735Z,0
2017-04-02T04:25:28.624Z,0
2017-04-02T04:26:37.838Z,4
2017-04-02T04:27:46.727Z,4
2017-04-02T04:28:55.655Z,4
2017-04-02T04:30:04.864Z,0
2017-04-02T04:31:14.004Z,4
2017-04-02T04:32:23.225Z,8
2017-04-02T04:33:32.114Z,4
2017-04-02T04:34:41.003Z,8
2017-04-02T04:35:49.894Z,8
2017-04-02T04:36:58.783Z,12
2017-04-02T04:38:07.671Z,12
2017-04-02T04:39:16.562Z,16
2017-04-02T04:40:25.487Z,16
2017-04-02T04:41:34.379Z,20
2017-04-02T04:42:43.467Z,24
2017-04-02T04:43:52.683Z,32
2017-04-02T04:45:01.907Z,40
2017-04-02T04:46:10.797Z,48
2017-04-02T04:47:20.070Z,56
2017-04-02T04:48:29.014Z,64
2017-04-02T04:49:37.906Z,76
2017-04-02T04:50:47.125Z,88
2017-04-02T04:51:56.017Z,104
2017-04-02T04:53:04.951Z,116
2017-04-02T04:54:13.844Z,132
2017-04-02T04:55:22.735Z,148
2017-04-02T04:56:31.664Z,168
2017-04-02T04:57:40.561Z,188
2017-04-02T04:58:49.774Z,204
2017-04-02T04:59:58.770Z,236
2017-04-02T05:01:08.640Z,264
2017-04-02T05:02:17.857Z,288
2017-04-02T05:03:26.749Z,316
2017-04-02T05:04:35.637Z,344
2017-04-02T05:05:44.676Z,376
2017-04-02T05:06:53.566Z,412
2017-04-02T05:08:02.779Z,456
2017-04-02T05:09:11.678Z,496
2017-04-02T05:10:20.894Z,540
2017-04-02T05:11:30.189Z,584
2017-04-02T05:12:39.077Z,628
2017-04-02T05:13:47.968Z,672
2017-04-02T05:14:56.859Z,712
2017-04-02T05:16:06.079Z,748
2017-04-02T05:17:15.127Z,776
2017-04-02T05:18:24.026Z,800
2017-04-02T05:19:33.245Z,832
2017-04-02T05:20:42.489Z,868
2017-04-02T05:21:51.384Z,904
2017-04-02T05:23:01.021Z,936
2017-04-02T05:24:09.914Z,972
2017-04-02T05:25:18.806Z,1012
2017-04-02T05:26:27.698Z,1052
2017-04-02T05:27:36.585Z,1088
2017-04-02T05:28:45.851Z,1132
2017-04-02T05:29:54.747Z,1172
2017-04-02T05:31:03.642Z,1208
2017-04-02T05:32:12.863Z,1248
2017-04-02T05:33:21.754Z,1284
2017-04-02T05:34:31.000Z,1324
2017-04-02T05:35:39.931Z,1368
2017-04-02T05:36:49.152Z,1412
2017-04-02T05:37:58.042Z,1452
2017-04-02T05:39:06.933Z,1492
2017-04-02T05:40:15.877Z,1532
2017-04-02T05:41:24.768Z,1572
2017-04-02T05:42:33.986Z,1624
2017-04-02T05:43:42.877Z,1664
2017-04-02T05:44:51.766Z,1712
2017-04-02T05:46:00.707Z,1756
2017-04-02T05:47:09.598Z,1808
2017-04-02T05:48:18.494Z,1872
2017-04-02T05:49:27.388Z,1940
2017-04-02T05:50:36.280Z,2016
2017-04-02T05:51:45.322Z,2084
2017-04-02T05:52:54.249Z,2140
2017-04-02T05:54:03.140Z,2204
2017-04-02T05:55:12.035Z,2272
2017-04-02T05:56:21.250Z,2352
2017-04-02T05:57:30.243Z,2384
2017-04-02T05:58:39.461Z,2412
2017-04-02T05:59:48.672Z,2408
2017-04-02T06:00:57.571Z,2392
2017-04-02T06:02:06.467Z,2400
2017-04-02T06:03:15.457Z,2488
2017-04-02T06:04:24.364Z,2608
2017-04-02T06:05:33.583Z,2708
2017-04-02T06:06:42.475Z,2780
2017-04-02T06:07:51.689Z,2852
2017-04-02T06:09:00.731Z,2912
2017-04-02T06:10:09.669Z,2980
2017-04-02T06:11:18.564Z,3036
2017-04-02T06:12:27.451Z,3076
2017-04-02T06:13:36.344Z,3108
2017-04-02T06:14:45.383Z,3072
2017-04-02T06:15:54.272Z,3096
2017-04-02T06:17:03.486Z,3116
2017-04-02T06:18:12.706Z,3248
2017-04-02T06:19:21.594Z,3328
2017-04-02T06:20:30.874Z,3336
2017-04-02T06:21:39.766Z,3356
2017-04-02T06:22:48.977Z,3404
2017-04-02T06:23:57.868Z,3468
2017-04-02T06:25:06.764Z,3472
2017-04-02T06:26:16.381Z,3396
2017-04-02T06:27:25.599Z,3292
2017-04-02T06:28:34.485Z,3224
2017-04-02T06:29:43.373Z,3188
2017-04-02T06:30:52.258Z,3172
2017-04-02T06:32:01.954Z,3144
2017-04-02T06:33:11.164Z,3212
2017-04-02T06:34:20.056Z,3200
2017-04-02T06:35:29.274Z,3204
2017-04-02T06:36:38.162Z,3140
2017-04-02T06:37:47.053Z,3116
2017-04-02T06:38:55.941Z,3120
2017-04-02T06:40:05.153Z,3196
2017-04-02T06:41:14.369Z,3280
2017-04-02T06:42:23.258Z,3352
2017-04-02T06:43:32.194Z,3452
2017-04-02T06:44:41.082Z,3556
2017-04-02T06:45:49.975Z,3616
2017-04-02T06:46:58.875Z,3644
2017-04-02T06:48:07.765Z,3636
2017-04-02T06:49:16.809Z,3560
2017-04-02T06:50:25.696Z,3624
2017-04-02T06:51:34.907Z,3736
2017-04-02T06:52:43.795Z,3792
2017-04-02T06:53:52.689Z,3856
2017-04-02T06:55:01.952Z,3944
2017-04-02T06:56:11.166Z,4016
2017-04-02T06:57:20.051Z,4032
2017-04-02T06:58:28.937Z,4048
2017-04-02T06:59:37.827Z,4104
2017-04-02T07:00:47.014Z,4152
2017-04-02T07:01:55.903Z,4168
2017-04-02T07:03:04.795Z,4192
2017-04-02T07:04:13.688Z,4216
2017-04-02T07:05:22.940Z,4196
2017-04-02T07:06:32.242Z,4176
2017-04-02T07:07:41.130Z,4176
2017-04-02T07:08:50.037Z,4184
2017-04-02T07:09:58.973Z,4184
2017-04-02T07:11:07.890Z,4164
2017-04-02T07:12:17.163Z,4172
2017-04-02T07:13:26.102Z,4184
2017-04-02T07:14:35.151Z,4208
2017-04-02T07:15:44.037Z,4256
2017-04-02T07:16:52.946Z,4320
2017-04-02T07:18:02.481Z,4372
2017-04-02T07:19:11.439Z,4420
2017-04-02T07:20:20.328Z,4464
2017-04-02T07:21:29.558Z,4512
2017-04-02T07:22:38.469Z,4564
2017-04-02T07:23:47.683Z,4596
2017-04-02T07:24:56.572Z,4668
2017-04-02T07:26:05.786Z,4784
2017-04-02T07:27:14.708Z,4900
2017-04-02T07:28:23.920Z,5004
2017-04-02T07:29:33.411Z,5080
2017-04-02T07:30:42.368Z,5124
2017-04-02T07:31:51.642Z,5288
2017-04-02T07:33:00.543Z,5548
2017-04-02T07:34:09.432Z,5828
2017-04-02T07:35:19.127Z,6184
2017-04-02T07:36:28.044Z,6296
2017-04-02T07:37:37.272Z,6380
2017-04-02T07:38:46.178Z,6152
2017-04-02T07:39:55.063Z,5796
2017-04-02T07:41:04.508Z,5840
2017-04-02T07:42:13.410Z,5896
2017-04-02T07:43:22.349Z,6144
2017-04-02T07:44:31.974Z,5836
2017-04-02T07:45:40.926Z,5624
2017-04-02T07:46:50.227Z,5544
2017-04-02T07:47:59.200Z,5780
2017-04-02T07:49:08.157Z,6284
2017-04-02T07:50:17.049Z,6992
2017-04-02T07:51:25.959Z,5508
2017-04-02T07:52:35.208Z,5376
2017-04-02T07:53:44.104Z,5392
2017-04-02T07:54:52.997Z,5276
2017-04-02T07:56:01.890Z,5092
2017-04-02T07:57:11.228Z,5048
2017-04-02T07:58:20.425Z,5064
2017-04-02T07:59:29.377Z,5180
2017-04-02T08:00:38.277Z,5712
2017-04-02T08:01:47.540Z,4992
2017-04-02T08:02:56.433Z,5108
2017-04-02T08:04:05.328Z,5616
2017-04-02T08:05:14.224Z,5312
2017-04-02T08:06:23.111Z,4980
2017-04-02T08:07:32.330Z,5096
2017-04-02T08:08:41.435Z,5284
2017-04-02T08:09:50.699Z,4944
2017-04-02T08:10:59.944Z,5212
2017-04-02T08:12:08.868Z,5520
2017-04-02T08:13:17.780Z,5448
2017-04-02T08:14:26.671Z,5008
2017-04-02T08:15:35.937Z,4952
2017-04-02T08:16:44.826Z,4656
2017-04-02T08:17:53.755Z,4920
2017-04-02T08:19:02.660Z,4764
2017-04-02T08:20:11.817Z,4788
2017-04-02T08:21:20.753Z,4180
2017-04-02T08:22:29.664Z,4184
2017-04-02T08:23:38.557Z,4568
2017-04-02T08:24:47.486Z,4588
2017-04-02T08:25:56.377Z,4116
2017-04-02T08:27:05.269Z,4108
2017-04-02T08:28:14.160Z,4476
2017-04-02T08:29:23.552Z,4504
2017-04-02T08:30:32.448Z,4528
2017-04-02T08:31:41.662Z,4512
2017-04-02T08:32:50.554Z,4424
2017-04-02T08:33:59.774Z,4680
2017-04-02T08:35:08.819Z,4456
2017-04-02T08:36:17.714Z,4484
2017-04-02T08:37:26.935Z,4452
2017-04-02T08:38:36.161Z,4500
2017-04-02T08:39:45.380Z,4492
2017-04-02T08:40:54.319Z,4464
2017-04-02T08:42:03.535Z,4440
2017-04-02T08:43:12.431Z,4440
2017-04-02T08:44:21.324Z,4468
2017-04-02T08:45:30.549Z,4456
2017-04-02T08:46:39.696Z,4488
2017-04-02T08:47:48.600Z,4524
2017-04-02T08:48:57.487Z,4532
2017-04-02T08:50:06.707Z,4580
2017-04-02T08:51:15.598Z,4488
2017-04-02T08:52:25.020Z,4536
2017-04-02T08:53:34.237Z,4592
2017-04-02T08:54:43.457Z,4588
2017-04-02T08:55:52.350Z,4592
2017-04-02T08:57:01.250Z,4608
2017-04-02T08:58:10.184Z,4620
2017-04-02T08:59:19.108Z,4620
2017-04-02T09:00:27.999Z,4680
2017-04-02T09:01:37.582Z,4600
2017-04-02T09:02:46.487Z,4628
2017-04-02T09:03:55.853Z,4684
2017-04-02T09:05:05.067Z,4716
2017-04-02T09:06:14.298Z,4728
2017-04-02T09:07:23.406Z,4712
2017-04-02T09:08:32.309Z,4712
2017-04-02T09:09:41.826Z,4756
2017-04-02T09:10:50.720Z,4832
2017-04-02T09:11:59.611Z,4856
2017-04-02T09:13:08.507Z,4808
2017-04-02T09:14:17.401Z,4844
2017-04-02T09:15:26.495Z,4892
2017-04-02T09:16:35.384Z,4944
2017-04-02T09:17:44.598Z,4908
2017-04-02T09:18:53.485Z,4920
2017-04-02T09:20:02.385Z,4952
2017-04-02T09:21:11.707Z,5016
2017-04-02T09:22:20.599Z,5012
2017-04-02T09:23:29.489Z,5048
2017-04-02T09:24:38.782Z,5100
2017-04-02T09:25:47.683Z,5096
2017-04-02T09:26:57.538Z,5000
2017-04-02T09:28:06.433Z,4908
2017-04-02T09:29:15.652Z,4820
2017-04-02T09:30:24.542Z,4844
2017-04-02T09:31:33.438Z,4976
2017-04-02T09:32:42.379Z,4968
2017-04-02T09:33:51.271Z,4988
2017-04-02T09:35:00.526Z,4944
2017-04-02T09:36:09.770Z,5000
2017-04-02T09:37:19.015Z,5036
2017-04-02T09:38:28.061Z,5012
2017-04-02T09:39:36.989Z,5080
2017-04-02T09:40:45.881Z,5116
2017-04-02T09:41:55.102Z,5204
2017-04-02T09:43:04.346Z,5216
2017-04-02T09:44:13.461Z,5272
2017-04-02T09:45:22.357Z,5284
2017-04-02T09:46:31.581Z,5268
2017-04-02T09:47:40.474Z,5356
2017-04-02T09:48:49.365Z,5492
2017-04-02T09:49:58.374Z,5536
2017-04-02T09:51:07.283Z,5568
2017-04-02T09:52:16.276Z,5564
2017-04-02T09:53:25.251Z,5536
2017-04-02T09:54:34.141Z,5556
2017-04-02T09:55:43.363Z,5600
2017-04-02T09:56:52.267Z,5672
2017-04-02T09:58:01.157Z,5672
2017-04-02T09:59:10.049Z,5768
2017-04-02T10:00:18.944Z,5960
2017-04-02T10:01:27.885Z,6084
2017-04-02T10:02:37.107Z,6376
2017-04-02T10:03:45.997Z,6920
2017-04-02T10:04:54.890Z,7052
2017-04-02T10:06:03.785Z,6656
2017-04-02T10:07:12.829Z,6624
2017-04-02T10:08:22.375Z,6800
2017-04-02T10:09:31.269Z,7224
2017-04-02T10:10:40.159Z,8592
2017-04-02T10:11:49.052Z,9864
2017-04-02T10:12:58.120Z,9272
2017-04-02T10:14:07.025Z,8984
2017-04-02T10:15:16.249Z,8492
2017-04-02T10:16:25.141Z,7856
2017-04-02T10:17:34.373Z,8184
2017-04-02T10:18:43.414Z,8040
2017-04-02T10:19:52.629Z,8360
2017-04-02T10:21:01.581Z,8568
2017-04-02T10:22:10.803Z,8376
2017-04-02T10:23:20.022Z,7800
2017-04-02T10:24:29.239Z,7280
2017-04-02T10:25:38.461Z,7804
2017-04-02T10:26:47.680Z,8400
2017-04-02T10:27:56.574Z,9304
2017-04-02T10:29:05.468Z,10516
2017-04-02T10:30:14.371Z,11664
2017-04-02T10:31:23.592Z,11196
2017-04-02T10:32:32.487Z,10712
2017-04-02T10:33:41.706Z,10156
2017-04-02T10:34:50.601Z,9172
2017-04-02T10:35:59.643Z,9136
2017-04-02T10:37:08.540Z,8788
2017-04-02T10:38:17.764Z,9072
2017-04-02T10:39:26.653Z,10356
2017-04-02T10:40:35.550Z,11256
2017-04-02T10:41:44.494Z,10396
2017-04-02T10:42:54.033Z,8892
2017-04-02T10:44:02.939Z,8556
2017-04-02T10:45:11.833Z,8752
2017-04-02T10:46:20.726Z,9788
2017-04-02T10:47:29.770Z,11228
2017-04-02T10:48:38.664Z,12224
2017-04-02T10:49:47.883Z,12788
2017-04-02T10:50:56.781Z,13092
2017-04-02T10:52:05.677Z,12988
2017-04-02T10:53:14.897Z,11980
2017-04-02T10:54:23.899Z,12836
2017-04-02T10:55:32.852Z,13796
2017-04-02T10:56:42.087Z,14888
2017-04-02T10:57:50.979Z,13708
2017-04-02T10:59:00.171Z,12404
2017-04-02T11:00:09.076Z,12500
2017-04-02T11:01:17.977Z,12832
2017-04-02T11:02:27.295Z,14052
2017-04-02T11:03:36.237Z,13096
2017-04-02T11:04:45.660Z,11160
2017-04-02T11:05:54.574Z,10336
2017-04-02T11:07:03.796Z,10972
2017-04-02T11:08:13.015Z,11684
2017-04-02T11:09:21.957Z,11264
2017-04-02T11:10:31.673Z,9896
2017-04-02T11:11:40.897Z,9352
2017-04-02T11:12:50.113Z,10040
2017-04-02T11:13:59.124Z,9960
2017-04-02T11:15:08.026Z,10448
2017-04-02T11:16:16.935Z,10108
2017-04-02T11:17:26.527Z,11396
2017-04-02T11:18:36.095Z,12512
2017-04-02T11:19:45.082Z,13460
2017-04-02T11:20:54.505Z,13644
2017-04-02T11:22:03.509Z,13184
2017-04-02T11:23:12.734Z,13360
2017-04-02T11:24:21.632Z,13360
2017-04-02T11:25:30.895Z,13748
2017-04-02T11:26:40.116Z,14372
2017-04-02T11:27:49.281Z,13684
2017-04-02T11:28:58.180Z,13828
2017-04-02T11:30:07.078Z,13508
2017-04-02T11:31:16.356Z,13112
2017-04-02T11:32:25.906Z,12796
2017-04-02T11:33:35.106Z,13304
2017-04-02T11:34:44.003Z,13612
2017-04-02T11:35:52.899Z,12988
2017-04-02T11:37:02.121Z,14032
2017-04-02T11:38:11.024Z,15540
2017-04-02T11:39:20.170Z,16348
2017-04-02T11:40:29.066Z,15196
2017-04-02T11:41:37.960Z,14024
2017-04-02T11:42:46.862Z,13524
2017-04-02T11:43:55.756Z,13732
2017-04-02T11:45:04.752Z,14788
2017-04-02T11:46:14.295Z,14904
2017-04-02T11:47:23.194Z,15044
2017-04-02T11:48:32.090Z,15296
2017-04-02T11:49:41.316Z,15412
2017-04-02T11:50:50.594Z,16460
2017-04-02T11:51:59.492Z,18464
2017-04-02T11:53:08.711Z,17792
2017-04-02T11:54:17.935Z,17856
2017-04-02T11:55:26.862Z,18112
2017-04-02T11:56:35.857Z,17088
2017-04-02T11:57:44.754Z,16052
2017-04-02T11:58:53.646Z,17184
2017-04-02T12:00:02.540Z,14440
2017-04-02T12:01:11.447Z,12204
2017-04-02T12:02:20.399Z,13404
2017-04-02T12:03:29.312Z,13644
2017-04-02T12:04:38.217Z,12320
2017-04-02T12:05:47.156Z,12324
2017-04-02T12:06:56.052Z,13432
2017-04-02T12:08:05.101Z,13860
2017-04-02T12:09:14.652Z,13012
2017-04-02T12:10:23.879Z,12040
2017-04-02T12:11:33.102Z,11984
2017-04-02T12:12:41.998Z,12596
2017-04-02T12:13:51.044Z,11820
2017-04-02T12:14:59.942Z,31168
2017-04-02T12:16:08.890Z,33376
2017-04-02T12:17:17.847Z,30880
2017-04-02T12:18:26.774Z,38784
2017-04-02T12:19:35.822Z,58144
2017-04-02T12:20:44.732Z,46336
2017-04-02T12:21:53.633Z,57376
2017-04-02T12:23:02.923Z,26080
2017-04-02T12:24:11.836Z,53408
2017-04-02T12:25:20.794Z,58048
2017-04-02T12:26:30.066Z,24992
2017-04-02T12:27:38.982Z,32672
2017-04-02T12:28:48.117Z,33728
2017-04-02T12:29:57.049Z,17344
2017-04-02T12:31:06.525Z,14964
2017-04-02T12:32:15.800Z,17856
2017-04-02T12:33:25.351Z,10412
2017-04-02T12:34:34.276Z,14208
2017-04-02T12:35:43.179Z,9564
2017-04-02T12:36:52.556Z,9952
2017-04-02T12:38:01.452Z,10936
2017-04-02T12:39:10.675Z,11940
2017-04-02T12:40:19.576Z,12804
2017-04-02T12:41:28.852Z,13608
2017-04-02T12:42:38.052Z,14456
2017-04-02T12:43:46.952Z,15896
2017-04-02T12:44:56.173Z,16836
2017-04-02T12:46:05.069Z,18240
2017-04-02T12:47:13.971Z,14852
2017-04-02T12:48:23.027Z,14800
2017-04-02T12:49:31.920Z,42016
2017-04-02T12:50:40.826Z,47008
2017-04-02T12:51:49.724Z,32256
2017-04-02T12:52:58.631Z,28384
2017-04-02T12:54:08.236Z,35168
2017-04-02T12:55:17.134Z,49440
2017-04-02T12:56:26.688Z,33248
2017-04-02T12:57:35.590Z,31072
2017-04-02T12:58:44.486Z,43392
2017-04-02T12:59:53.864Z,39168
2017-04-02T13:01:03.087Z,15748
2017-04-02T13:02:12.315Z,13204
2017-04-02T13:03:21.545Z,11512
2017-04-02T13:04:30.448Z,12412
2017-04-02T13:05:39.348Z,13512
2017-04-02T13:06:48.571Z,14984
2017-04-02T13:07:57.790Z,17664
2017-04-02T13:09:07.013Z,26496
2017-04-02T13:10:15.915Z,19040
2017-04-02T13:11:24.968Z,13396
2017-04-02T13:12:34.192Z,12024
2017-04-02T13:13:43.087Z,12556
2017-04-02T13:14:51.987Z,14036
2017-04-02T13:16:00.885Z,15848
2017-04-02T13:17:09.936Z,16464
2017-04-02T13:18:18.834Z,18816
2017-04-02T13:19:28.055Z,18624
2017-04-02T13:20:36.955Z,19424
2017-04-02T13:21:45.853Z,48896
2017-04-02T13:22:54.948Z,34976
2017-04-02T13:24:03.846Z,23040
2017-04-02T13:25:12.746Z,35456
2017-04-02T13:26:21.646Z,21216
2017-04-02T13:27:30.897Z,18624
2017-04-02T13:28:39.848Z,15296
2017-04-02T13:29:48.745Z,13364
2017-04-02T13:30:57.639Z,11684
2017-04-02T13:32:06.543Z,12932
2017-04-02T13:33:15.445Z,13536
2017-04-02T13:34:24.497Z,16160
2017-04-02T13:35:33.403Z,32032
2017-04-02T13:36:42.304Z,15164
2017-04-02T13:37:51.204Z,12536
2017-04-02T13:39:00.758Z,11972
2017-04-02T13:40:09.757Z,10944
2017-04-02T13:41:18.659Z,9688
2017-04-02T13:42:27.560Z,9012
2017-04-02T13:43:36.462Z,8592
2017-04-02T13:44:45.360Z,8044
2017-04-02T13:45:54.355Z,7776
2017-04-02T13:47:03.255Z,7252
2017-04-02T13:48:12.210Z,6856
2017-04-02T13:49:21.108Z,7164
2017-04-02T13:50:30.006Z,7968
2017-04-02T13:51:38.906Z,8712
2017-04-02T13:52:47.805Z,9540
2017-04-02T13:53:56.701Z,11340
2017-04-02T13:55:05.597Z,10976
2017-04-02T13:56:14.491Z,11480
2017-04-02T13:57:23.451Z,12248
2017-04-02T13:58:32.388Z,11384
2017-04-02T13:59:41.290Z,9376
2017-04-02T14:00:50.188Z,8016
2017-04-02T14:01:59.414Z,7940
2017-04-02T14:03:08.637Z,7768
2017-04-02T14:04:17.531Z,8108
2017-04-02T14:05:26.758Z,8368
2017-04-02T14:06:35.663Z,8516
2017-04-02T14:07:44.559Z,10120
2017-04-02T14:08:53.470Z,17408
2017-04-02T14:10:02.366Z,11128
2017-04-02T14:11:11.271Z,10252
2017-04-02T14:12:20.492Z,8976
2017-04-02T14:13:29.387Z,7508
2017-04-02T14:14:38.473Z,6764
2017-04-02T14:15:47.690Z,6364
2017-04-02T14:16:56.582Z,6136
2017-04-02T14:18:05.476Z,6288
2017-04-02T14:19:14.379Z,6764
2017-04-02T14:20:23.427Z,7328
2017-04-02T14:21:32.325Z,8124
2017-04-02T14:22:41.219Z,9800
2017-04-02T14:23:50.115Z,14960
2017-04-02T14:24:59.009Z,23872
2017-04-02T14:26:08.956Z,15340
2017-04-02T14:27:18.188Z,17856
2017-04-02T14:28:27.080Z,19328
2017-04-02T14:29:35.990Z,15096
2017-04-02T14:30:45.206Z,12816
2017-04-02T14:31:54.584Z,11624
2017-04-02T14:33:03.488Z,11772
2017-04-02T14:34:12.380Z,11708
2017-04-02T14:35:21.276Z,11520
2017-04-02T14:36:30.182Z,11328
2017-04-02T14:37:39.384Z,11340
2017-04-02T14:38:48.281Z,11728
2017-04-02T14:39:57.497Z,13016
2017-04-02T14:41:06.391Z,15100
2017-04-02T14:42:15.289Z,18048
2017-04-02T14:43:24.555Z,21472
2017-04-02T14:44:33.453Z,24864
2017-04-02T14:45:42.350Z,27392
2017-04-02T14:46:51.251Z,44992
2017-04-02T14:48:00.516Z,63360
2017-04-02T14:49:09.889Z,75328
2017-04-02T14:50:18.794Z,74912
2017-04-02T14:51:27.696Z,69536
2017-04-02T14:52:36.600Z,61600
2017-04-02T14:53:45.496Z,36544
2017-04-02T14:54:54.877Z,23232
2017-04-02T14:56:04.425Z,21440
2017-04-02T14:57:13.326Z,28384
2017-04-02T14:58:22.228Z,22016
2017-04-02T14:59:31.454Z,15192
2017-04-02T15:00:40.739Z,14204
2017-04-02T15:01:49.982Z,15600
2017-04-02T15:02:59.204Z,17120
2017-04-02T15:04:08.109Z,18080
2017-04-02T15:05:17.334Z,17952
2017-04-02T15:06:26.286Z,17632
2017-04-02T15:07:35.513Z,17280
2017-04-02T15:08:44.413Z,17280
2017-04-02T15:09:53.311Z,18080
2017-04-02T15:11:02.207Z,22848
2017-04-02T15:12:11.581Z,31328
2017-04-02T15:13:20.804Z,23232
2017-04-02T15:14:30.028Z,25920
2017-04-02T15:15:38.928Z,24928
2017-04-02T15:16:47.824Z,21056
2017-04-02T15:17:56.770Z,18880
2017-04-02T15:19:06.003Z,16864
2017-04-02T15:20:14.903Z,15032
2017-04-02T15:21:23.799Z,13676
2017-04-02T15:22:33.345Z,12912
2017-04-02T15:23:42.496Z,11780
2017-04-02T15:24:51.405Z,10868
2017-04-02T15:26:00.961Z,10396
2017-04-02T15:27:10.179Z,10100
2017-04-02T15:28:19.073Z,10136
2017-04-02T15:29:27.973Z,10420
2017-04-02T15:30:36.868Z,10524
2017-04-02T15:31:45.761Z,10564
2017-04-02T15:32:54.662Z,10892
2017-04-02T15:34:03.559Z,11176
2017-04-02T15:35:12.620Z,10680
2017-04-02T15:36:21.838Z,9288
2017-04-02T15:37:30.735Z,8016
2017-04-02T15:38:39.631Z,6760
2017-04-02T15:39:48.531Z,6080